sensor_id;sensor_type;location;lat;lon;timestamp;P1;durP1;ratioP1;P2;durP2;ratioP2
18170;SDS011;9210;48.358;10.902;2023-03-05T00:01:41;57.83;;;23.10;;
18170;SDS011;9210;48.358;10.902;2023-03-05T00:04:12;62.90;;;23.67;;
18170;SDS011;9210;48.358;10.902;2023-03-05T00:06:41;63.67;;;23.77;;
18170;SDS011;9210;48.358;10.902;2023-03-05T00:09:10;62.27;;;24.17;;
18170;SDS011;9210;48.358;10.902;2023-03-05T00:11:41;58.33;;;23.07;;
18170;SDS011;9210;48.358;10.902;2023-03-05T00:14:10;60.47;;;23.57;;
18170;SDS011;9210;48.358;10.902;2023-03-05T00:16:40;65.20;;;23.53;;
18170;SDS011;9210;48.358;10.902;2023-03-05T00:19:08;60.80;;;24.17;;
18170;SDS011;9210;48.358;10.902;2023-03-05T00:21:38;60.00;;;23.13;;
18170;SDS011;9210;48.358;10.902;2023-03-05T00:24:08;64.33;;;23.83;;
18170;SDS011;9210;48.358;10.902;2023-03-05T00:26:38;62.80;;;24.13;;
18170;SDS011;9210;48.358;10.902;2023-03-05T00:29:07;62.43;;;24.73;;
18170;SDS011;9210;48.358;10.902;2023-03-05T00:31:36;63.60;;;23.67;;
18170;SDS011;9210;48.358;10.902;2023-03-05T00:34:07;67.83;;;26.13;;
18170;SDS011;9210;48.358;10.902;2023-03-05T00:36:38;65.10;;;24.13;;
18170;SDS011;9210;48.358;10.902;2023-03-05T00:39:06;66.67;;;25.93;;
18170;SDS011;9210;48.358;10.902;2023-03-05T00:41:35;71.23;;;26.67;;
18170;SDS011;9210;48.358;10.902;2023-03-05T00:44:03;65.40;;;25.93;;
18170;SDS011;9210;48.358;10.902;2023-03-05T00:46:32;70.07;;;25.87;;
18170;SDS011;9210;48.358;10.902;2023-03-05T00:49:01;63.50;;;24.37;;
18170;SDS011;9210;48.358;10.902;2023-03-05T00:51:31;63.07;;;23.93;;
18170;SDS011;9210;48.358;10.902;2023-03-05T00:54:00;69.77;;;26.03;;
18170;SDS011;9210;48.358;10.902;2023-03-05T00:56:28;61.63;;;24.43;;
18170;SDS011;9210;48.358;10.902;2023-03-05T00:58:57;64.47;;;24.10;;
18170;SDS011;9210;48.358;10.902;2023-03-05T01:01:25;65.00;;;23.57;;
18170;SDS011;9210;48.358;10.902;2023-03-05T01:03:54;66.00;;;25.10;;
18170;SDS011;9210;48.358;10.902;2023-03-05T01:06:24;68.87;;;26.63;;
18170;SDS011;9210;48.358;10.902;2023-03-05T01:08:56;71.10;;;25.47;;
18170;SDS011;9210;48.358;10.902;2023-03-05T01:11:25;65.83;;;24.53;;
18170;SDS011;9210;48.358;10.902;2023-03-05T01:13:55;68.50;;;25.43;;
18170;SDS011;9210;48.358;10.902;2023-03-05T01:16:24;64.40;;;24.93;;
18170;SDS011;9210;48.358;10.902;2023-03-05T01:18:53;70.00;;;26.43;;
18170;SDS011;9210;48.358;10.902;2023-03-05T01:21:21;65.83;;;25.10;;
18170;SDS011;9210;48.358;10.902;2023-03-05T01:23:50;67.80;;;25.70;;
18170;SDS011;9210;48.358;10.902;2023-03-05T01:26:20;75.17;;;25.93;;
18170;SDS011;9210;48.358;10.902;2023-03-05T01:28:48;68.40;;;25.47;;
18170;SDS011;9210;48.358;10.902;2023-03-05T01:31:17;65.83;;;24.60;;
18170;SDS011;9210;48.358;10.902;2023-03-05T01:33:45;63.93;;;24.00;;
18170;SDS011;9210;48.358;10.902;2023-03-05T01:36:14;60.43;;;23.10;;
18170;SDS011;9210;48.358;10.902;2023-03-05T01:38:43;63.00;;;25.37;;
18170;SDS011;9210;48.358;10.902;2023-03-05T01:41:13;64.03;;;24.97;;
18170;SDS011;9210;48.358;10.902;2023-03-05T01:43:44;62.87;;;24.00;;
18170;SDS011;9210;48.358;10.902;2023-03-05T01:46:22;62.23;;;23.90;;
18170;SDS011;9210;48.358;10.902;2023-03-05T01:48:53;63.20;;;23.43;;
18170;SDS011;9210;48.358;10.902;2023-03-05T01:51:24;66.03;;;24.67;;
18170;SDS011;9210;48.358;10.902;2023-03-05T01:53:54;69.87;;;24.33;;
18170;SDS011;9210;48.358;10.902;2023-03-05T01:56:25;63.80;;;24.27;;
18170;SDS011;9210;48.358;10.902;2023-03-05T01:58:56;65.30;;;23.93;;
18170;SDS011;9210;48.358;10.902;2023-03-05T02:01:30;61.83;;;24.50;;
18170;SDS011;9210;48.358;10.902;2023-03-05T02:03:59;68.00;;;23.67;;
18170;SDS011;9210;48.358;10.902;2023-03-05T02:06:28;67.53;;;23.47;;
18170;SDS011;9210;48.358;10.902;2023-03-05T02:08:57;63.13;;;23.83;;
18170;SDS011;9210;48.358;10.902;2023-03-05T02:11:26;63.67;;;24.63;;
18170;SDS011;9210;48.358;10.902;2023-03-05T02:13:56;64.60;;;24.40;;
18170;SDS011;9210;48.358;10.902;2023-03-05T02:16:25;66.50;;;24.90;;
18170;SDS011;9210;48.358;10.902;2023-03-05T02:19:01;63.33;;;24.83;;
18170;SDS011;9210;48.358;10.902;2023-03-05T02:21:36;65.73;;;23.37;;
18170;SDS011;9210;48.358;10.902;2023-03-05T02:24:05;60.73;;;22.93;;
18170;SDS011;9210;48.358;10.902;2023-03-05T02:26:34;64.40;;;23.97;;
18170;SDS011;9210;48.358;10.902;2023-03-05T02:29:02;69.90;;;24.63;;
18170;SDS011;9210;48.358;10.902;2023-03-05T02:31:32;69.20;;;24.93;;
18170;SDS011;9210;48.358;10.902;2023-03-05T02:34:01;71.00;;;25.43;;
18170;SDS011;9210;48.358;10.902;2023-03-05T02:36:29;71.00;;;26.33;;
18170;SDS011;9210;48.358;10.902;2023-03-05T02:38:59;64.90;;;24.33;;
18170;SDS011;9210;48.358;10.902;2023-03-05T02:41:28;61.00;;;24.07;;
18170;SDS011;9210;48.358;10.902;2023-03-05T02:43:57;67.60;;;25.87;;
18170;SDS011;9210;48.358;10.902;2023-03-05T02:46:25;67.50;;;24.87;;
18170;SDS011;9210;48.358;10.902;2023-03-05T02:48:54;66.60;;;25.57;;
18170;SDS011;9210;48.358;10.902;2023-03-05T02:51:22;66.57;;;24.80;;
18170;SDS011;9210;48.358;10.902;2023-03-05T02:53:51;70.07;;;24.57;;
18170;SDS011;9210;48.358;10.902;2023-03-05T02:56:23;67.37;;;25.07;;
18170;SDS011;9210;48.358;10.902;2023-03-05T02:58:52;69.07;;;25.40;;
18170;SDS011;9210;48.358;10.902;2023-03-05T03:01:20;68.67;;;26.23;;
18170;SDS011;9210;48.358;10.902;2023-03-05T03:03:49;66.33;;;25.70;;
18170;SDS011;9210;48.358;10.902;2023-03-05T03:06:17;63.50;;;23.60;;
18170;SDS011;9210;48.358;10.902;2023-03-05T03:08:49;70.13;;;25.13;;
18170;SDS011;9210;48.358;10.902;2023-03-05T03:11:18;69.37;;;24.97;;
18170;SDS011;9210;48.358;10.902;2023-03-05T03:13:48;64.53;;;24.13;;
18170;SDS011;9210;48.358;10.902;2023-03-05T03:16:16;67.00;;;24.93;;
18170;SDS011;9210;48.358;10.902;2023-03-05T03:18:45;60.93;;;24.60;;
18170;SDS011;9210;48.358;10.902;2023-03-05T03:21:18;62.37;;;24.60;;
18170;SDS011;9210;48.358;10.902;2023-03-05T03:23:46;64.50;;;24.20;;
18170;SDS011;9210;48.358;10.902;2023-03-05T03:26:15;62.97;;;23.93;;
18170;SDS011;9210;48.358;10.902;2023-03-05T03:28:43;63.73;;;23.93;;
18170;SDS011;9210;48.358;10.902;2023-03-05T03:31:13;61.20;;;23.83;;
18170;SDS011;9210;48.358;10.902;2023-03-05T03:33:42;69.53;;;25.23;;
18170;SDS011;9210;48.358;10.902;2023-03-05T03:36:11;64.97;;;23.57;;
18170;SDS011;9210;48.358;10.902;2023-03-05T03:38:39;63.87;;;24.63;;
18170;SDS011;9210;48.358;10.902;2023-03-05T03:41:08;58.70;;;23.77;;
18170;SDS011;9210;48.358;10.902;2023-03-05T03:43:36;68.77;;;25.70;;
18170;SDS011;9210;48.358;10.902;2023-03-05T03:46:05;62.63;;;23.80;;
18170;SDS011;9210;48.358;10.902;2023-03-05T03:48:35;68.33;;;24.43;;
18170;SDS011;9210;48.358;10.902;2023-03-05T03:51:04;71.73;;;26.40;;
18170;SDS011;9210;48.358;10.902;2023-03-05T03:53:33;71.13;;;25.30;;
18170;SDS011;9210;48.358;10.902;2023-03-05T03:56:02;68.40;;;25.30;;
18170;SDS011;9210;48.358;10.902;2023-03-05T03:58:30;64.97;;;24.80;;
18170;SDS011;9210;48.358;10.902;2023-03-05T04:00:59;67.43;;;25.00;;
18170;SDS011;9210;48.358;10.902;2023-03-05T04:03:27;68.07;;;24.23;;
18170;SDS011;9210;48.358;10.902;2023-03-05T04:05:57;53.67;;;21.33;;
18170;SDS011;9210;48.358;10.902;2023-03-05T04:08:25;71.77;;;25.73;;
18170;SDS011;9210;48.358;10.902;2023-03-05T04:10:54;72.43;;;25.20;;
18170;SDS011;9210;48.358;10.902;2023-03-05T04:13:22;62.57;;;23.80;;
18170;SDS011;9210;48.358;10.902;2023-03-05T04:15:51;65.10;;;24.50;;
18170;SDS011;9210;48.358;10.902;2023-03-05T04:18:20;64.70;;;23.83;;
18170;SDS011;9210;48.358;10.902;2023-03-05T04:20:48;63.50;;;24.27;;
18170;SDS011;9210;48.358;10.902;2023-03-05T04:23:18;71.87;;;24.40;;
18170;SDS011;9210;48.358;10.902;2023-03-05T04:25:47;62.73;;;23.17;;
18170;SDS011;9210;48.358;10.902;2023-03-05T04:28:15;63.43;;;24.00;;
18170;SDS011;9210;48.358;10.902;2023-03-05T04:30:44;57.67;;;21.90;;
18170;SDS011;9210;48.358;10.902;2023-03-05T04:33:13;64.57;;;24.23;;
18170;SDS011;9210;48.358;10.902;2023-03-05T04:35:41;67.23;;;23.73;;
18170;SDS011;9210;48.358;10.902;2023-03-05T04:38:10;61.37;;;21.33;;
18170;SDS011;9210;48.358;10.902;2023-03-05T04:40:40;64.37;;;23.80;;
18170;SDS011;9210;48.358;10.902;2023-03-05T04:43:08;60.83;;;22.50;;
18170;SDS011;9210;48.358;10.902;2023-03-05T04:45:38;67.77;;;24.03;;
18170;SDS011;9210;48.358;10.902;2023-03-05T04:48:07;58.13;;;22.47;;
18170;SDS011;9210;48.358;10.902;2023-03-05T04:50:35;64.53;;;23.83;;
18170;SDS011;9210;48.358;10.902;2023-03-05T04:53:04;74.77;;;26.00;;
18170;SDS011;9210;48.358;10.902;2023-03-05T04:55:33;58.30;;;22.47;;
18170;SDS011;9210;48.358;10.902;2023-03-05T04:58:02;66.70;;;24.27;;
18170;SDS011;9210;48.358;10.902;2023-03-05T05:00:31;61.43;;;23.90;;
18170;SDS011;9210;48.358;10.902;2023-03-05T05:02:59;63.60;;;24.00;;
18170;SDS011;9210;48.358;10.902;2023-03-05T05:05:28;61.73;;;22.67;;
18170;SDS011;9210;48.358;10.902;2023-03-05T05:07:57;60.63;;;23.73;;
18170;SDS011;9210;48.358;10.902;2023-03-05T05:10:25;63.53;;;23.63;;
18170;SDS011;9210;48.358;10.902;2023-03-05T05:12:54;67.47;;;25.17;;
18170;SDS011;9210;48.358;10.902;2023-03-05T05:15:24;58.07;;;21.60;;
18170;SDS011;9210;48.358;10.902;2023-03-05T05:17:52;66.27;;;24.10;;
18170;SDS011;9210;48.358;10.902;2023-03-05T05:20:20;71.77;;;23.63;;
18170;SDS011;9210;48.358;10.902;2023-03-05T05:22:49;67.43;;;25.37;;
18170;SDS011;9210;48.358;10.902;2023-03-05T05:25:18;69.13;;;23.67;;
18170;SDS011;9210;48.358;10.902;2023-03-05T05:27:46;68.37;;;24.13;;
18170;SDS011;9210;48.358;10.902;2023-03-05T05:30:15;63.90;;;23.50;;
18170;SDS011;9210;48.358;10.902;2023-03-05T05:32:44;62.80;;;22.83;;
18170;SDS011;9210;48.358;10.902;2023-03-05T05:35:13;58.93;;;22.07;;
18170;SDS011;9210;48.358;10.902;2023-03-05T05:37:41;58.30;;;22.93;;
18170;SDS011;9210;48.358;10.902;2023-03-05T05:40:10;64.13;;;23.30;;
18170;SDS011;9210;48.358;10.902;2023-03-05T05:42:38;68.90;;;24.57;;
18170;SDS011;9210;48.358;10.902;2023-03-05T05:45:08;63.50;;;22.80;;
18170;SDS011;9210;48.358;10.902;2023-03-05T05:47:36;63.17;;;23.10;;
18170;SDS011;9210;48.358;10.902;2023-03-05T05:50:07;67.27;;;23.50;;
18170;SDS011;9210;48.358;10.902;2023-03-05T05:52:35;67.87;;;23.77;;
18170;SDS011;9210;48.358;10.902;2023-03-05T05:55:04;65.70;;;24.07;;
18170;SDS011;9210;48.358;10.902;2023-03-05T05:57:33;63.80;;;23.27;;
18170;SDS011;9210;48.358;10.902;2023-03-05T06:00:03;70.13;;;24.23;;
18170;SDS011;9210;48.358;10.902;2023-03-05T06:02:36;64.73;;;23.83;;
18170;SDS011;9210;48.358;10.902;2023-03-05T06:05:07;65.67;;;23.33;;
18170;SDS011;9210;48.358;10.902;2023-03-05T06:07:37;56.43;;;21.53;;
18170;SDS011;9210;48.358;10.902;2023-03-05T06:10:06;57.77;;;21.77;;
18170;SDS011;9210;48.358;10.902;2023-03-05T06:12:35;60.40;;;22.13;;
18170;SDS011;9210;48.358;10.902;2023-03-05T06:15:04;64.10;;;22.33;;
18170;SDS011;9210;48.358;10.902;2023-03-05T06:17:32;69.10;;;23.90;;
18170;SDS011;9210;48.358;10.902;2023-03-05T06:20:01;65.13;;;23.13;;
18170;SDS011;9210;48.358;10.902;2023-03-05T06:22:31;64.03;;;22.77;;
18170;SDS011;9210;48.358;10.902;2023-03-05T06:25:02;75.00;;;25.07;;
18170;SDS011;9210;48.358;10.902;2023-03-05T06:27:31;63.03;;;22.70;;
18170;SDS011;9210;48.358;10.902;2023-03-05T06:29:59;65.13;;;24.60;;
18170;SDS011;9210;48.358;10.902;2023-03-05T06:32:27;61.47;;;23.13;;
18170;SDS011;9210;48.358;10.902;2023-03-05T06:34:56;70.07;;;24.27;;
18170;SDS011;9210;48.358;10.902;2023-03-05T06:37:24;69.47;;;24.87;;
18170;SDS011;9210;48.358;10.902;2023-03-05T06:39:54;72.50;;;25.03;;
18170;SDS011;9210;48.358;10.902;2023-03-05T06:42:23;58.47;;;22.27;;
18170;SDS011;9210;48.358;10.902;2023-03-05T06:44:51;55.60;;;21.67;;
18170;SDS011;9210;48.358;10.902;2023-03-05T06:47:19;62.87;;;22.97;;
18170;SDS011;9210;48.358;10.902;2023-03-05T06:49:48;61.17;;;23.23;;
18170;SDS011;9210;48.358;10.902;2023-03-05T06:52:16;64.37;;;23.47;;
18170;SDS011;9210;48.358;10.902;2023-03-05T06:54:45;61.87;;;22.73;;
18170;SDS011;9210;48.358;10.902;2023-03-05T06:57:14;65.30;;;24.57;;
18170;SDS011;9210;48.358;10.902;2023-03-05T06:59:43;66.37;;;24.63;;
18170;SDS011;9210;48.358;10.902;2023-03-05T07:02:14;61.53;;;22.80;;
18170;SDS011;9210;48.358;10.902;2023-03-05T07:04:44;61.17;;;21.70;;
18170;SDS011;9210;48.358;10.902;2023-03-05T07:07:13;59.07;;;21.97;;
18170;SDS011;9210;48.358;10.902;2023-03-05T07:09:43;60.73;;;23.00;;
18170;SDS011;9210;48.358;10.902;2023-03-05T07:12:16;65.20;;;22.90;;
18170;SDS011;9210;48.358;10.902;2023-03-05T07:14:45;60.60;;;22.13;;
18170;SDS011;9210;48.358;10.902;2023-03-05T07:17:13;59.97;;;21.73;;
18170;SDS011;9210;48.358;10.902;2023-03-05T07:19:42;61.70;;;21.40;;
18170;SDS011;9210;48.358;10.902;2023-03-05T07:22:10;58.80;;;22.37;;
18170;SDS011;9210;48.358;10.902;2023-03-05T07:24:39;59.77;;;22.23;;
18170;SDS011;9210;48.358;10.902;2023-03-05T07:27:07;64.00;;;23.80;;
18170;SDS011;9210;48.358;10.902;2023-03-05T07:29:37;60.03;;;20.93;;
18170;SDS011;9210;48.358;10.902;2023-03-05T07:32:05;53.10;;;19.80;;
18170;SDS011;9210;48.358;10.902;2023-03-05T07:34:35;57.63;;;21.93;;
18170;SDS011;9210;48.358;10.902;2023-03-05T07:37:04;59.43;;;22.37;;
18170;SDS011;9210;48.358;10.902;2023-03-05T07:39:32;59.47;;;22.17;;
18170;SDS011;9210;48.358;10.902;2023-03-05T07:42:01;56.73;;;19.67;;
18170;SDS011;9210;48.358;10.902;2023-03-05T07:44:47;58.67;;;21.90;;
18170;SDS011;9210;48.358;10.902;2023-03-05T07:47:16;62.33;;;22.03;;
18170;SDS011;9210;48.358;10.902;2023-03-05T07:49:44;63.70;;;22.60;;
18170;SDS011;9210;48.358;10.902;2023-03-05T07:52:13;68.13;;;23.80;;
18170;SDS011;9210;48.358;10.902;2023-03-05T07:54:41;56.77;;;20.60;;
18170;SDS011;9210;48.358;10.902;2023-03-05T07:57:10;65.43;;;22.57;;
18170;SDS011;9210;48.358;10.902;2023-03-05T07:59:39;64.33;;;22.87;;
18170;SDS011;9210;48.358;10.902;2023-03-05T08:02:10;63.83;;;22.47;;
18170;SDS011;9210;48.358;10.902;2023-03-05T08:04:39;59.97;;;21.47;;
18170;SDS011;9210;48.358;10.902;2023-03-05T08:07:08;55.63;;;20.03;;
18170;SDS011;9210;48.358;10.902;2023-03-05T08:09:37;58.77;;;21.20;;
18170;SDS011;9210;48.358;10.902;2023-03-05T08:12:06;59.77;;;21.87;;
18170;SDS011;9210;48.358;10.902;2023-03-05T08:14:35;55.53;;;21.43;;
18170;SDS011;9210;48.358;10.902;2023-03-05T08:17:04;60.47;;;20.57;;
18170;SDS011;9210;48.358;10.902;2023-03-05T08:19:34;60.37;;;21.37;;
18170;SDS011;9210;48.358;10.902;2023-03-05T08:22:03;59.97;;;22.57;;
18170;SDS011;9210;48.358;10.902;2023-03-05T08:24:31;59.13;;;21.10;;
18170;SDS011;9210;48.358;10.902;2023-03-05T08:27:00;57.97;;;21.37;;
18170;SDS011;9210;48.358;10.902;2023-03-05T08:29:28;55.00;;;20.47;;
18170;SDS011;9210;48.358;10.902;2023-03-05T08:31:56;57.43;;;21.37;;
18170;SDS011;9210;48.358;10.902;2023-03-05T08:34:25;53.87;;;19.47;;
18170;SDS011;9210;48.358;10.902;2023-03-05T08:36:55;59.90;;;21.47;;
18170;SDS011;9210;48.358;10.902;2023-03-05T08:39:23;56.13;;;21.20;;
18170;SDS011;9210;48.358;10.902;2023-03-05T08:41:52;58.70;;;21.27;;
18170;SDS011;9210;48.358;10.902;2023-03-05T08:44:20;60.40;;;21.47;;
18170;SDS011;9210;48.358;10.902;2023-03-05T08:46:49;57.40;;;20.97;;
18170;SDS011;9210;48.358;10.902;2023-03-05T08:49:17;56.93;;;20.80;;
18170;SDS011;9210;48.358;10.902;2023-03-05T08:51:46;60.17;;;21.40;;
18170;SDS011;9210;48.358;10.902;2023-03-05T08:54:16;54.83;;;20.53;;
18170;SDS011;9210;48.358;10.902;2023-03-05T08:56:44;62.30;;;22.23;;
18170;SDS011;9210;48.358;10.902;2023-03-05T08:59:12;58.60;;;21.67;;
18170;SDS011;9210;48.358;10.902;2023-03-05T09:01:41;56.03;;;20.07;;
18170;SDS011;9210;48.358;10.902;2023-03-05T09:04:09;58.00;;;20.73;;
18170;SDS011;9210;48.358;10.902;2023-03-05T09:06:38;52.67;;;19.80;;
18170;SDS011;9210;48.358;10.902;2023-03-05T09:09:06;58.07;;;20.87;;
18170;SDS011;9210;48.358;10.902;2023-03-05T09:11:37;57.83;;;21.30;;
18170;SDS011;9210;48.358;10.902;2023-03-05T09:14:06;61.70;;;22.30;;
18170;SDS011;9210;48.358;10.902;2023-03-05T09:16:34;54.13;;;19.97;;
18170;SDS011;9210;48.358;10.902;2023-03-05T09:19:06;55.67;;;21.77;;
18170;SDS011;9210;48.358;10.902;2023-03-05T09:21:36;60.17;;;21.40;;
18170;SDS011;9210;48.358;10.902;2023-03-05T09:24:04;58.07;;;21.47;;
18170;SDS011;9210;48.358;10.902;2023-03-05T09:26:33;55.57;;;20.70;;
18170;SDS011;9210;48.358;10.902;2023-03-05T09:29:02;65.93;;;23.27;;
18170;SDS011;9210;48.358;10.902;2023-03-05T09:31:32;62.47;;;22.17;;
18170;SDS011;9210;48.358;10.902;2023-03-05T09:34:01;65.80;;;23.50;;
18170;SDS011;9210;48.358;10.902;2023-03-05T09:36:30;69.80;;;21.53;;
18170;SDS011;9210;48.358;10.902;2023-03-05T09:38:58;58.73;;;21.33;;
18170;SDS011;9210;48.358;10.902;2023-03-05T09:41:29;58.20;;;21.20;;
18170;SDS011;9210;48.358;10.902;2023-03-05T09:44:10;57.33;;;22.13;;
18170;SDS011;9210;48.358;10.902;2023-03-05T09:46:47;64.57;;;23.07;;
18170;SDS011;9210;48.358;10.902;2023-03-05T09:49:18;61.00;;;22.03;;
18170;SDS011;9210;48.358;10.902;2023-03-05T09:51:49;58.83;;;21.57;;
18170;SDS011;9210;48.358;10.902;2023-03-05T09:54:20;65.23;;;22.43;;
18170;SDS011;9210;48.358;10.902;2023-03-05T09:56:52;61.87;;;22.23;;
18170;SDS011;9210;48.358;10.902;2023-03-05T09:59:26;58.73;;;20.97;;
18170;SDS011;9210;48.358;10.902;2023-03-05T10:01:58;64.17;;;22.43;;
18170;SDS011;9210;48.358;10.902;2023-03-05T10:04:28;63.07;;;21.93;;
18170;SDS011;9210;48.358;10.902;2023-03-05T10:07:06;65.00;;;22.30;;
18170;SDS011;9210;48.358;10.902;2023-03-05T10:09:40;64.00;;;21.77;;
18170;SDS011;9210;48.358;10.902;2023-03-05T10:12:13;58.10;;;20.63;;
18170;SDS011;9210;48.358;10.902;2023-03-05T10:14:43;59.70;;;21.30;;
18170;SDS011;9210;48.358;10.902;2023-03-05T10:17:33;58.17;;;20.90;;
18170;SDS011;9210;48.358;10.902;2023-03-05T10:23:00;56.87;;;20.87;;
18170;SDS011;9210;48.358;10.902;2023-03-05T10:25:35;58.10;;;21.37;;
18170;SDS011;9210;48.358;10.902;2023-03-05T10:28:08;54.67;;;20.67;;
18170;SDS011;9210;48.358;10.902;2023-03-05T10:30:50;60.50;;;20.60;;
18170;SDS011;9210;48.358;10.902;2023-03-05T10:33:21;56.43;;;19.63;;
18170;SDS011;9210;48.358;10.902;2023-03-05T10:36:10;60.00;;;20.73;;
18170;SDS011;9210;48.358;10.902;2023-03-05T10:38:47;62.50;;;21.40;;
18170;SDS011;9210;48.358;10.902;2023-03-05T10:41:21;59.57;;;21.93;;
18170;SDS011;9210;48.358;10.902;2023-03-05T10:43:54;56.50;;;21.60;;
18170;SDS011;9210;48.358;10.902;2023-03-05T10:46:27;56.33;;;21.77;;
18170;SDS011;9210;48.358;10.902;2023-03-05T10:48:58;58.20;;;21.97;;
18170;SDS011;9210;48.358;10.902;2023-03-05T10:51:31;57.73;;;20.63;;
18170;SDS011;9210;48.358;10.902;2023-03-05T10:54:01;53.23;;;20.00;;
18170;SDS011;9210;48.358;10.902;2023-03-05T10:56:31;50.90;;;20.60;;
18170;SDS011;9210;48.358;10.902;2023-03-05T10:59:00;54.10;;;20.17;;
18170;SDS011;9210;48.358;10.902;2023-03-05T11:01:30;57.70;;;21.37;;
18170;SDS011;9210;48.358;10.902;2023-03-05T11:03:59;54.50;;;20.90;;
18170;SDS011;9210;48.358;10.902;2023-03-05T11:06:30;53.87;;;21.73;;
18170;SDS011;9210;48.358;10.902;2023-03-05T11:09:13;54.40;;;20.40;;
18170;SDS011;9210;48.358;10.902;2023-03-05T11:11:43;55.23;;;20.23;;
18170;SDS011;9210;48.358;10.902;2023-03-05T11:14:22;55.97;;;19.77;;
18170;SDS011;9210;48.358;10.902;2023-03-05T11:16:56;53.93;;;18.10;;
18170;SDS011;9210;48.358;10.902;2023-03-05T11:19:25;57.03;;;20.20;;
18170;SDS011;9210;48.358;10.902;2023-03-05T11:22:07;53.83;;;20.07;;
18170;SDS011;9210;48.358;10.902;2023-03-05T11:24:40;58.03;;;21.10;;
18170;SDS011;9210;48.358;10.902;2023-03-05T11:27:21;53.47;;;20.27;;
18170;SDS011;9210;48.358;10.902;2023-03-05T11:29:49;58.40;;;20.63;;
18170;SDS011;9210;48.358;10.902;2023-03-05T11:32:21;56.37;;;21.10;;
18170;SDS011;9210;48.358;10.902;2023-03-05T11:34:52;54.57;;;19.37;;
18170;SDS011;9210;48.358;10.902;2023-03-05T11:37:22;49.43;;;19.07;;
18170;SDS011;9210;48.358;10.902;2023-03-05T11:40:13;51.20;;;18.80;;
18170;SDS011;9210;48.358;10.902;2023-03-05T11:42:43;53.97;;;20.27;;
18170;SDS011;9210;48.358;10.902;2023-03-05T11:45:15;54.43;;;19.30;;
18170;SDS011;9210;48.358;10.902;2023-03-05T11:47:47;56.43;;;20.43;;
18170;SDS011;9210;48.358;10.902;2023-03-05T11:50:18;53.67;;;21.33;;
18170;SDS011;9210;48.358;10.902;2023-03-05T11:52:47;54.37;;;19.67;;
18170;SDS011;9210;48.358;10.902;2023-03-05T11:55:17;51.03;;;20.13;;
18170;SDS011;9210;48.358;10.902;2023-03-05T11:57:48;50.33;;;20.03;;
18170;SDS011;9210;48.358;10.902;2023-03-05T12:00:18;52.80;;;19.37;;
18170;SDS011;9210;48.358;10.902;2023-03-05T12:02:51;49.73;;;18.03;;
18170;SDS011;9210;48.358;10.902;2023-03-05T12:05:20;48.63;;;19.17;;
18170;SDS011;9210;48.358;10.902;2023-03-05T12:07:49;49.60;;;19.07;;
18170;SDS011;9210;48.358;10.902;2023-03-05T12:10:19;46.80;;;19.00;;
18170;SDS011;9210;48.358;10.902;2023-03-05T12:12:49;46.47;;;18.00;;
18170;SDS011;9210;48.358;10.902;2023-03-05T12:15:25;55.43;;;20.13;;
18170;SDS011;9210;48.358;10.902;2023-03-05T12:17:59;50.70;;;18.93;;
18170;SDS011;9210;48.358;10.902;2023-03-05T12:20:33;47.87;;;18.63;;
18170;SDS011;9210;48.358;10.902;2023-03-05T12:23:08;49.87;;;19.37;;
18170;SDS011;9210;48.358;10.902;2023-03-05T12:25:43;51.63;;;18.93;;
18170;SDS011;9210;48.358;10.902;2023-03-05T12:28:14;47.63;;;19.00;;
18170;SDS011;9210;48.358;10.902;2023-03-05T12:30:56;52.17;;;18.67;;
18170;SDS011;9210;48.358;10.902;2023-03-05T12:33:31;45.33;;;17.03;;
18170;SDS011;9210;48.358;10.902;2023-03-05T12:38:43;43.20;;;17.30;;
18170;SDS011;9210;48.358;10.902;2023-03-05T12:44:15;45.70;;;17.50;;
18170;SDS011;9210;48.358;10.902;2023-03-05T12:46:44;42.10;;;17.43;;
18170;SDS011;9210;48.358;10.902;2023-03-05T12:49:28;52.20;;;17.63;;
18170;SDS011;9210;48.358;10.902;2023-03-05T12:51:57;43.63;;;17.80;;
18170;SDS011;9210;48.358;10.902;2023-03-05T12:54:30;47.63;;;18.13;;
18170;SDS011;9210;48.358;10.902;2023-03-05T12:56:59;45.13;;;18.20;;
18170;SDS011;9210;48.358;10.902;2023-03-05T12:59:30;44.60;;;17.20;;
18170;SDS011;9210;48.358;10.902;2023-03-05T13:02:00;49.87;;;18.33;;
18170;SDS011;9210;48.358;10.902;2023-03-05T13:04:32;41.60;;;16.83;;
18170;SDS011;9210;48.358;10.902;2023-03-05T13:07:01;43.70;;;17.13;;
18170;SDS011;9210;48.358;10.902;2023-03-05T13:09:31;41.30;;;16.63;;
18170;SDS011;9210;48.358;10.902;2023-03-05T13:12:02;42.53;;;17.37;;
18170;SDS011;9210;48.358;10.902;2023-03-05T13:14:32;41.37;;;16.80;;
18170;SDS011;9210;48.358;10.902;2023-03-05T13:17:02;45.03;;;17.30;;
18170;SDS011;9210;48.358;10.902;2023-03-05T13:19:51;37.87;;;15.73;;
18170;SDS011;9210;48.358;10.902;2023-03-05T13:22:20;33.27;;;14.97;;
18170;SDS011;9210;48.358;10.902;2023-03-05T13:25:02;34.57;;;13.37;;
18170;SDS011;9210;48.358;10.902;2023-03-05T13:27:31;34.60;;;13.90;;
18170;SDS011;9210;48.358;10.902;2023-03-05T13:29:59;39.07;;;14.40;;
18170;SDS011;9210;48.358;10.902;2023-03-05T13:32:29;35.70;;;13.97;;
18170;SDS011;9210;48.358;10.902;2023-03-05T13:34:59;36.73;;;15.10;;
18170;SDS011;9210;48.358;10.902;2023-03-05T13:37:28;33.70;;;13.57;;
18170;SDS011;9210;48.358;10.902;2023-03-05T13:39:59;31.13;;;11.57;;
18170;SDS011;9210;48.358;10.902;2023-03-05T13:42:30;23.30;;;9.77;;
18170;SDS011;9210;48.358;10.902;2023-03-05T13:45:00;20.10;;;9.03;;
18170;SDS011;9210;48.358;10.902;2023-03-05T13:47:30;23.63;;;10.07;;
18170;SDS011;9210;48.358;10.902;2023-03-05T13:50:00;25.10;;;10.27;;
18170;SDS011;9210;48.358;10.902;2023-03-05T13:52:32;23.63;;;9.70;;
18170;SDS011;9210;48.358;10.902;2023-03-05T13:55:01;22.60;;;9.37;;
18170;SDS011;9210;48.358;10.902;2023-03-05T13:57:34;21.33;;;9.10;;
18170;SDS011;9210;48.358;10.902;2023-03-05T14:00:04;25.73;;;9.03;;
18170;SDS011;9210;48.358;10.902;2023-03-05T14:02:33;23.07;;;9.27;;
18170;SDS011;9210;48.358;10.902;2023-03-05T14:05:11;27.30;;;10.57;;
18170;SDS011;9210;48.358;10.902;2023-03-05T14:07:40;27.90;;;10.63;;
18170;SDS011;9210;48.358;10.902;2023-03-05T14:10:22;23.73;;;9.40;;
18170;SDS011;9210;48.358;10.902;2023-03-05T14:12:54;19.50;;;9.23;;
18170;SDS011;9210;48.358;10.902;2023-03-05T14:15:24;24.47;;;9.70;;
18170;SDS011;9210;48.358;10.902;2023-03-05T14:18:06;20.60;;;9.07;;
18170;SDS011;9210;48.358;10.902;2023-03-05T14:20:36;21.23;;;9.17;;
18170;SDS011;9210;48.358;10.902;2023-03-05T14:25:52;24.30;;;9.70;;
18170;SDS011;9210;48.358;10.902;2023-03-05T14:28:38;27.17;;;9.90;;
18170;SDS011;9210;48.358;10.902;2023-03-05T14:31:09;22.17;;;9.53;;
18170;SDS011;9210;48.358;10.902;2023-03-05T14:33:40;21.07;;;9.30;;
18170;SDS011;9210;48.358;10.902;2023-03-05T14:36:10;20.80;;;9.40;;
18170;SDS011;9210;48.358;10.902;2023-03-05T14:38:40;22.13;;;9.37;;
18170;SDS011;9210;48.358;10.902;2023-03-05T14:41:18;22.90;;;9.37;;
18170;SDS011;9210;48.358;10.902;2023-03-05T14:43:47;20.47;;;8.97;;
18170;SDS011;9210;48.358;10.902;2023-03-05T14:46:16;23.97;;;9.73;;
18170;SDS011;9210;48.358;10.902;2023-03-05T14:48:45;22.00;;;9.23;;
18170;SDS011;9210;48.358;10.902;2023-03-05T14:51:15;19.63;;;8.90;;
18170;SDS011;9210;48.358;10.902;2023-03-05T14:53:44;20.37;;;8.80;;